Terminal Aerodrome Forecast
Issued by NWS

Home | Current Version | Previous Version | Text Only | Print | Product List | Glossary On
Versions: 1 2 3 4 5 6 7 8 9 10 11 12 13 14 15
000
FTUS43 KMPX 271726
TAFRWF
TAF
KRWF 271726Z 2718/2818 12006KT P6SM SCT012 OVC025
     FM272100 15007KT P6SM SCT020 BKN035
     FM280000 15006KT P6SM SCT070
     FM280900 16006KT 6SM BR VCTS BKN070CB
     FM281400 18007KT P6SM SCT025 SCT100=

USA.gov is the U.S. government's official web portal to all federal, state and local government web resources and services.